»·PEaware :: N917UT KPDX-KEUG

N917UT :: KPDX-KEUG

FLIGHT INFORMATION

Flight Status: Arrived
Operator: Privately registered:
United States
More flights under this callsign
Pilot: Chris L. (17558)
Aircraft: CESSNA 172 SKYHAWK
(C172)
More flights by this aircraft type
Origin: KPDX Portland Intl
United States
Destination: KEUG Mahlon Sweet
United States
More flights between these airports :: More routes between these airports
Route: +
File this flight plan on PilotEdge
Remarks: FF
Altitude:
(Current/Filed)
4,500ft
Speed:
(Current/Filed)
0kts
Departed: 17-Dec-18 02:09 PM
Arrived: 17-Dec-18 03:07 PM
Distance/Time
Traveled:
92nm/0:58
Distance/Time
To Go:
Arrived

Flight Plot

Page will automatically refresh every two minutes.

Flight plan parsing failed; only flown route is shown


Map Options




Map Legend


Flown Route
Filed Route
Departure Airport
Arrival Airport
Navaid (VOR, NDB)
Fix

Horizontal Profiles

Position Reports

Time Latitude Longitude Heading Altitude Ground
Speed
17-Dec-18 13:57 45.587424 -122.583532 207 26ft 0kts
17-Dec-18 13:58 45.587424 -122.583532 207 26ft 0kts
17-Dec-18 13:59 45.587424 -122.583532 207 26ft 0kts
17-Dec-18 14:00 45.587424 -122.583532 207 26ft 0kts
17-Dec-18 14:01 45.587421 -122.583535 208 26ft 0kts
17-Dec-18 14:02 45.588361 -122.584860 299 28ft 15kts
17-Dec-18 14:03 45.590239 -122.589378 300 30ft 21kts
17-Dec-18 14:04 45.592983 -122.596263 305 29ft 17kts
17-Dec-18 14:05 45.593929 -122.596201 38 30ft 0kts
17-Dec-18 14:06 45.593929 -122.596201 38 30ft 0kts
17-Dec-18 14:07 45.593938 -122.596191 37 30ft 1kts
17-Dec-18 14:08 45.590227 -122.584158 117 253ft 76kts
17-Dec-18 14:09 45.576202 -122.566168 198 1022ft 88kts
17-Dec-18 14:10 45.561923 -122.585657 216 1565ft 96kts
17-Dec-18 14:11 45.547257 -122.606200 218 2156ft 92kts
17-Dec-18 14:12 45.529345 -122.619605 192 2624ft 97kts
17-Dec-18 14:13 45.508549 -122.628575 191 3098ft 100kts
17-Dec-18 14:15 45.488558 -122.637549 191 3535ft 101kts
17-Dec-18 14:16 45.467975 -122.646839 192 3510ft 112kts
17-Dec-18 14:17 45.440609 -122.658604 191 3513ft 113kts
17-Dec-18 14:18 45.411677 -122.670922 193 3513ft 114kts
17-Dec-18 14:19 45.384418 -122.682565 194 3513ft 114kts
17-Dec-18 14:20 45.358599 -122.693591 194 3655ft 114kts
17-Dec-18 14:21 45.334305 -122.703790 195 4141ft 109kts
17-Dec-18 14:22 45.315069 -122.711964 195 4541ft 104kts
17-Dec-18 14:23 45.291002 -122.722248 196 4516ft 116kts
17-Dec-18 14:24 45.265342 -122.733252 197 4517ft 117kts
17-Dec-18 14:25 45.240464 -122.743837 196 4517ft 117kts
17-Dec-18 14:26 45.212562 -122.755710 196 4517ft 117kts
17-Dec-18 14:27 45.181355 -122.768965 196 4517ft 117kts
17-Dec-18 14:28 45.154402 -122.780379 196 4517ft 117kts
17-Dec-18 14:29 45.127434 -122.791847 196 4517ft 117kts
17-Dec-18 14:30 45.099669 -122.803605 196 4517ft 117kts
17-Dec-18 14:31 45.072405 -122.815089 196 4517ft 116kts
17-Dec-18 14:32 45.046283 -122.826120 195 4517ft 116kts
17-Dec-18 14:32 45.021057 -122.836786 195 4516ft 116kts
17-Dec-18 14:34 44.991937 -122.849096 195 4511ft 115kts
17-Dec-18 14:34 44.968732 -122.858831 193 4507ft 111kts
17-Dec-18 14:36 44.943427 -122.869403 193 4506ft 109kts
17-Dec-18 14:36 44.921852 -122.878497 193 4506ft 109kts
17-Dec-18 14:37 44.899132 -122.888015 193 4506ft 109kts
17-Dec-18 14:38 44.870367 -122.900081 193 4509ft 109kts
17-Dec-18 14:40 44.839904 -122.912846 193 4509ft 109kts
17-Dec-18 14:40 44.816838 -122.922537 193 4509ft 109kts
17-Dec-18 14:41 44.793069 -122.932440 193 4509ft 109kts
17-Dec-18 14:42 44.768798 -122.942574 193 4509ft 110kts
17-Dec-18 14:43 44.741783 -122.953867 193 4508ft 111kts
17-Dec-18 14:44 44.712290 -122.966159 193 4508ft 113kts
17-Dec-18 14:45 44.682217 -122.978684 194 4508ft 115kts
17-Dec-18 14:46 44.652989 -122.990826 194 4508ft 115kts
17-Dec-18 14:47 44.622638 -123.003440 194 4508ft 115kts
17-Dec-18 14:48 44.595746 -123.014691 195 4508ft 115kts
17-Dec-18 14:49 44.567575 -123.027203 195 4508ft 114kts
17-Dec-18 14:50 44.537975 -123.039726 195 4508ft 114kts
17-Dec-18 14:51 44.508421 -123.052031 195 4508ft 114kts
17-Dec-18 14:52 44.479802 -123.063927 195 4508ft 114kts
17-Dec-18 14:53 44.449922 -123.076276 195 4512ft 114kts
17-Dec-18 14:54 44.422345 -123.087707 196 4517ft 115kts
17-Dec-18 14:55 44.391820 -123.100362 196 4347ft 113kts
17-Dec-18 14:56 44.361977 -123.112733 196 3846ft 112kts
17-Dec-18 14:57 44.332010 -123.125112 196 3346ft 113kts
17-Dec-18 14:58 44.303309 -123.136508 195 2869ft 113kts
17-Dec-18 14:59 44.275183 -123.154714 208 2370ft 112kts
17-Dec-18 15:00 44.247980 -123.175792 210 1885ft 111kts
17-Dec-18 15:01 44.221566 -123.197296 210 1484ft 110kts
17-Dec-18 15:02 44.197208 -123.216943 209 1445ft 81kts
17-Dec-18 15:03 44.177676 -123.219921 177 1098ft 73kts
17-Dec-18 15:04 44.158115 -123.219423 179 807ft 73kts
17-Dec-18 15:05 44.139603 -123.219228 180 520ft 61kts
17-Dec-18 15:06 44.128075 -123.219085 178 366ft 20kts
17-Dec-18 15:07 44.124398 -123.217109 171 367ft 12kts
17-Dec-18 15:08 44.120878 -123.216982 176 371ft 15kts
17-Dec-18 15:09 44.117959 -123.215118 214 370ft 6kts

Navigation Log

Ident Type
Flight plan parsing failed, navigation log unavailable